Sea Thames — V2BV1 — position and weather

sailwx.info

Track history (hours):
 
Tides and Currents Weather Stations Pressure Air Temp Water Temp Dewpoint Dewpoint Depression Visibility Wind Speed Wind Dir Waves Ship Positions

Sea Thames

Last reported at 2015-Jan-26 19:24 UTC. Time now 2015-Jan-30 14:01 UTC.
Position N 46°08' W 001°40'.

Length 87 m; draft 3.8 m.

Type: Cargo ship. MMSI: 304933000.

Date/timePositionNaut miles runAvg speedWind from/ knotsBaromVisibWave heightAir tempDewpointWater temp
2015-Jan-26 19:24N 46°08' W 001°40'  
2015-Jan-20 09:10N 46°10' W 001°14'0 0.0
2015-Jan-20 08:33N 46°10' W 001°14'0 0.0
2015-Jan-20 07:33N 46°10' W 001°14'5 4.3
2015-Jan-20 06:31N 46°05' W 001°15'0 0.0
2015-Jan-20 05:31N 46°05' W 001°15'0 0.1
2015-Jan-20 04:33N 46°05' W 001°16'7 7.1
2015-Jan-20 03:33N 46°06' W 001°26'18 7.9
2015-Jan-20 01:15N 46°11' W 001°51'14 8.1
2015-Jan-19 23:31N 46°20' W 002°06'9 7.9
2015-Jan-19 22:22N 46°26' W 002°17'  
2015-Jan-17 12:20N 50°36' E 000°18'7 8.7
2015-Jan-17 11:31N 50°38' E 000°29'34 8.0
2015-Jan-17 07:13N 50°57' E 001°14'6 8.5
2015-Jan-17 06:34N 51°01' E 001°21'10 9.5
2015-Jan-17 05:33N 51°07' E 001°33'1110.7
2015-Jan-17 04:33N 51°13' E 001°46'1510.2
2015-Jan-17 03:08N 51°25' E 002°00'5 8.5
2015-Jan-17 02:32N 51°24' E 002°08'8 8.4
2015-Jan-17 01:33N 51°21' E 002°21'9 8.7
2015-Jan-17 00:34N 51°23' E 002°34'8 8.0
2015-Jan-16 23:32N 51°22' E 002°47'8 8.3
2015-Jan-16 22:33N 51°22' E 002°60'12 7.9
2015-Jan-16 21:04N 51°24' E 003°19'4 7.3
2015-Jan-16 20:31N 51°25' E 003°25'7 6.9
2015-Jan-16 19:33N 51°26' E 003°35'  
Track history (hours):
 
Tides and Currents Weather Stations Pressure Air Temp Water Temp Dewpoint Dewpoint Depression Visibility Wind Speed Wind Dir Waves Ship Positions

Sea Thames

Last reported at 2015-Jan-26 19:24 UTC. Time now 2015-Jan-30 14:01 UTC.
Position N 46°08' W 001°40'.

Length 87 m; draft 3.8 m.

Type: Cargo ship. MMSI: 304933000.

Date/timePositionNaut miles runAvg speedWind from/ knotsBaromVisibWave heightAir tempDewpointWater temp
2015-Jan-26 19:24N 46°08' W 001°40'  
2015-Jan-20 09:10N 46°10' W 001°14'0 0.0
2015-Jan-20 08:33N 46°10' W 001°14'0 0.0
2015-Jan-20 07:33N 46°10' W 001°14'5 4.3
2015-Jan-20 06:31N 46°05' W 001°15'0 0.0
2015-Jan-20 05:31N 46°05' W 001°15'0 0.1
2015-Jan-20 04:33N 46°05' W 001°16'7 7.1
2015-Jan-20 03:33N 46°06' W 001°26'18 7.9
2015-Jan-20 01:15N 46°11' W 001°51'14 8.1
2015-Jan-19 23:31N 46°20' W 002°06'9 7.9
2015-Jan-19 22:22N 46°26' W 002°17'  
2015-Jan-17 12:20N 50°36' E 000°18'7 8.7
2015-Jan-17 11:31N 50°38' E 000°29'34 8.0
2015-Jan-17 07:13N 50°57' E 001°14'6 8.5
2015-Jan-17 06:34N 51°01' E 001°21'10 9.5
2015-Jan-17 05:33N 51°07' E 001°33'1110.7
2015-Jan-17 04:33N 51°13' E 001°46'1510.2
2015-Jan-17 03:08N 51°25' E 002°00'5 8.5
2015-Jan-17 02:32N 51°24' E 002°08'8 8.4
2015-Jan-17 01:33N 51°21' E 002°21'9 8.7
2015-Jan-17 00:34N 51°23' E 002°34'8 8.0
2015-Jan-16 23:32N 51°22' E 002°47'8 8.3
2015-Jan-16 22:33N 51°22' E 002°60'12 7.9
2015-Jan-16 21:04N 51°24' E 003°19'4 7.3
2015-Jan-16 20:31N 51°25' E 003°25'7 6.9
2015-Jan-16 19:33N 51°26' E 003°35'  

Dump ship's entire track history